createdAt,value
2018-12-31T00:01:53.091Z,34.47
2018-12-31T00:04:21.690Z,36.63
2018-12-31T00:06:50.249Z,35.30
2018-12-31T00:09:18.766Z,36.67
2018-12-31T00:11:47.321Z,42.50
2018-12-31T00:14:15.834Z,33.70
2018-12-31T00:16:44.398Z,31.70
2018-12-31T00:19:12.987Z,37.93
2018-12-31T00:21:41.645Z,37.63
2018-12-31T00:24:10.160Z,36.87
2018-12-31T00:26:38.661Z,34.23
2018-12-31T00:29:07.223Z,35.50
2018-12-31T00:31:35.813Z,35.70
2018-12-31T00:34:05.943Z,35.00
2018-12-31T00:36:34.541Z,39.33
2018-12-31T00:39:03.095Z,38.97
2018-12-31T00:41:31.677Z,36.37
2018-12-31T00:44:00.171Z,39.37
2018-12-31T00:46:28.782Z,44.30
2018-12-31T00:48:57.338Z,35.27
2018-12-31T00:51:26.066Z,37.40
2018-12-31T00:53:54.637Z,33.97
2018-12-31T00:56:23.227Z,30.60
2018-12-31T00:58:51.790Z,37.80
2018-12-31T01:01:20.373Z,35.20
2018-12-31T01:03:48.871Z,34.27
2018-12-31T01:06:17.461Z,35.50
2018-12-31T01:08:46.037Z,32.97
2018-12-31T01:11:14.620Z,32.67
2018-12-31T01:13:43.260Z,35.40
2018-12-31T01:16:11.822Z,38.80
2018-12-31T01:18:40.410Z,33.43
2018-12-31T01:21:09.227Z,33.50
2018-12-31T01:23:37.785Z,33.60
2018-12-31T01:26:06.285Z,32.33
2018-12-31T01:28:34.871Z,34.20
2018-12-31T01:31:03.442Z,34.40
2018-12-31T01:33:32.193Z,31.90
2018-12-31T01:36:00.697Z,31.87
2018-12-31T01:38:29.355Z,31.90
2018-12-31T01:40:57.857Z,34.43
2018-12-31T01:43:26.430Z,33.73
2018-12-31T01:45:54.921Z,31.53
2018-12-31T01:48:23.433Z,37.90
2018-12-31T01:50:51.996Z,31.60
2018-12-31T01:53:20.584Z,34.07
2018-12-31T01:55:49.085Z,31.40
2018-12-31T01:58:17.669Z,32.57
2018-12-31T02:00:46.164Z,31.07
2018-12-31T02:03:16.348Z,33.97
2018-12-31T02:05:44.895Z,29.90
2018-12-31T02:08:13.482Z,28.20
2018-12-31T02:10:42.039Z,31.93
2018-12-31T02:13:10.637Z,30.10
2018-12-31T02:15:39.200Z,31.37
2018-12-31T02:18:07.769Z,32.30
2018-12-31T02:20:36.280Z,32.33
2018-12-31T02:23:04.850Z,36.63
2018-12-31T02:25:33.384Z,37.20
2018-12-31T02:28:01.939Z,35.27
2018-12-31T02:30:30.512Z,40.87
2018-12-31T02:32:59.274Z,38.93
2018-12-31T02:35:27.841Z,39.13
2018-12-31T02:37:56.418Z,40.93
2018-12-31T02:40:25.001Z,47.23
2018-12-31T02:42:53.572Z,49.80
2018-12-31T02:45:22.154Z,44.23
2018-12-31T02:47:50.644Z,48.27
2018-12-31T02:50:19.156Z,55.27
2018-12-31T02:52:47.651Z,52.53
2018-12-31T02:55:16.266Z,43.00
2018-12-31T02:57:44.833Z,51.40
2018-12-31T03:00:13.415Z,51.73
2018-12-31T03:02:41.998Z,53.10
2018-12-31T03:05:10.664Z,51.10
2018-12-31T03:07:39.209Z,48.80
2018-12-31T03:10:07.855Z,50.13
2018-12-31T03:12:36.445Z,54.83
2018-12-31T03:15:05.846Z,47.07
2018-12-31T03:17:34.354Z,51.53
2018-12-31T03:20:02.856Z,54.50
2018-12-31T03:22:31.440Z,49.73
2018-12-31T03:25:00.017Z,44.87
2018-12-31T03:27:28.531Z,43.83
2018-12-31T03:29:57.106Z,41.67
2018-12-31T03:32:25.695Z,37.83
2018-12-31T03:34:54.257Z,39.80
2018-12-31T03:37:22.770Z,42.37
2018-12-31T03:39:51.337Z,47.90
2018-12-31T03:42:19.925Z,41.37
2018-12-31T03:44:48.489Z,44.23
2018-12-31T03:47:16.997Z,41.70
2018-12-31T03:49:45.521Z,47.20
2018-12-31T03:52:14.106Z,46.17
2018-12-31T03:54:42.689Z,39.73
2018-12-31T03:57:11.269Z,45.73
2018-12-31T03:59:39.773Z,46.00
2018-12-31T04:02:08.278Z,44.17
2018-12-31T04:04:36.781Z,48.20
2018-12-31T04:07:05.360Z,46.30
2018-12-31T04:09:35.004Z,47.63
2018-12-31T04:12:03.733Z,50.10
2018-12-31T04:14:32.226Z,50.33
2018-12-31T04:17:00.756Z,45.07
2018-12-31T04:19:29.320Z,55.50
2018-12-31T04:21:57.885Z,43.60
2018-12-31T04:24:26.397Z,50.00
2018-12-31T04:26:54.926Z,51.60
2018-12-31T04:29:23.534Z,54.13
2018-12-31T04:31:52.068Z,59.00
2018-12-31T04:34:20.650Z,58.30
2018-12-31T04:36:49.153Z,62.37
2018-12-31T04:39:17.755Z,55.70
2018-12-31T04:41:46.314Z,59.60
2018-12-31T04:44:14.900Z,67.00
2018-12-31T04:46:43.470Z,49.03
2018-12-31T04:49:12.105Z,57.83
2018-12-31T04:51:40.650Z,60.67
2018-12-31T04:54:09.238Z,58.20
2018-12-31T04:56:37.802Z,64.13
2018-12-31T04:59:06.390Z,54.47
2018-12-31T05:01:34.954Z,59.00
2018-12-31T05:04:03.577Z,52.60
2018-12-31T05:06:32.127Z,51.23
2018-12-31T05:09:00.735Z,53.43
2018-12-31T05:11:29.283Z,63.07
2018-12-31T05:13:57.875Z,52.73
2018-12-31T05:16:26.437Z,56.50
2018-12-31T05:18:55.050Z,57.53
2018-12-31T05:21:23.605Z,51.93
2018-12-31T05:23:52.118Z,61.60
2018-12-31T05:26:20.698Z,56.50
2018-12-31T05:28:49.306Z,58.07
2018-12-31T05:31:17.868Z,60.77
2018-12-31T05:33:46.442Z,67.20
2018-12-31T05:36:15.046Z,61.50
2018-12-31T05:38:43.614Z,57.77
2018-12-31T05:41:12.132Z,59.00
2018-12-31T05:43:40.701Z,62.93
2018-12-31T05:46:09.209Z,73.13
2018-12-31T05:48:37.774Z,65.37
2018-12-31T05:51:06.385Z,82.93
2018-12-31T05:53:34.933Z,69.73
2018-12-31T05:56:03.437Z,73.47
2018-12-31T05:58:31.951Z,76.57
2018-12-31T06:01:00.534Z,75.77
2018-12-31T06:03:29.108Z,72.20
2018-12-31T06:05:57.695Z,73.83
2018-12-31T06:08:26.255Z,82.27
2018-12-31T06:10:54.912Z,82.57
2018-12-31T06:13:23.416Z,86.97
2018-12-31T06:15:52.015Z,77.43
2018-12-31T06:18:20.568Z,89.03
2018-12-31T06:20:49.153Z,80.17
2018-12-31T06:23:17.677Z,70.40
2018-12-31T06:25:46.250Z,92.63
2018-12-31T06:28:14.822Z,91.33
2018-12-31T06:30:43.410Z,76.67
2018-12-31T06:33:11.980Z,74.93
2018-12-31T06:35:40.548Z,76.43
2018-12-31T06:38:09.137Z,76.93
2018-12-31T06:40:37.634Z,73.20
2018-12-31T06:43:06.221Z,77.40
2018-12-31T06:45:34.781Z,78.03
2018-12-31T06:48:03.294Z,74.83
2018-12-31T06:50:31.932Z,70.93
2018-12-31T06:53:00.520Z,66.80
2018-12-31T06:55:29.096Z,67.03
2018-12-31T06:57:57.676Z,64.83
2018-12-31T07:00:26.164Z,69.77
2018-12-31T07:02:54.746Z,63.83
2018-12-31T07:05:23.330Z,67.87
2018-12-31T07:07:51.913Z,66.27
2018-12-31T07:10:20.479Z,67.50
2018-12-31T07:12:49.067Z,58.47
2018-12-31T07:15:17.637Z,63.67
2018-12-31T07:17:46.147Z,59.70
2018-12-31T07:20:14.713Z,55.57
2018-12-31T07:22:43.232Z,58.53
2018-12-31T07:25:11.738Z,54.17
2018-12-31T07:27:40.335Z,56.00
2018-12-31T07:30:08.974Z,52.20
2018-12-31T07:32:37.618Z,50.97
2018-12-31T07:35:06.382Z,46.77
2018-12-31T07:37:35.103Z,49.33
2018-12-31T07:40:04.469Z,49.20
2018-12-31T07:42:33.040Z,58.30
2018-12-31T07:45:01.633Z,45.43
2018-12-31T07:47:30.214Z,40.87
2018-12-31T07:49:58.814Z,46.10
2018-12-31T07:52:27.303Z,40.27
2018-12-31T07:54:55.889Z,42.43
2018-12-31T07:57:24.467Z,126.47
2018-12-31T07:59:53.067Z,68.60
2018-12-31T08:02:21.561Z,65.03
2018-12-31T08:04:50.070Z,75.97
2018-12-31T08:07:18.561Z,51.40
2018-12-31T08:09:47.146Z,42.40
2018-12-31T08:12:15.723Z,46.00
2018-12-31T08:14:44.304Z,48.20
2018-12-31T08:17:12.807Z,42.20
2018-12-31T08:19:41.394Z,47.50
2018-12-31T08:22:10.198Z,36.80
2018-12-31T08:24:38.722Z,43.33
2018-12-31T08:27:07.282Z,43.50
2018-12-31T08:29:35.866Z,46.13
2018-12-31T08:32:04.450Z,45.90
2018-12-31T08:34:33.035Z,40.07
2018-12-31T08:37:01.530Z,38.50
2018-12-31T08:39:30.048Z,33.20
2018-12-31T08:41:58.606Z,33.60
2018-12-31T08:44:27.222Z,39.33
2018-12-31T08:46:55.802Z,34.50
2018-12-31T08:49:24.378Z,34.83
2018-12-31T08:51:52.941Z,37.07
2018-12-31T08:54:21.429Z,32.03
2018-12-31T08:56:49.957Z,33.60
2018-12-31T08:59:18.529Z,32.73
2018-12-31T09:01:47.045Z,35.83
2018-12-31T09:04:15.626Z,29.53
2018-12-31T09:06:44.217Z,28.37
2018-12-31T09:09:12.777Z,27.40
2018-12-31T09:11:41.286Z,26.50
2018-12-31T09:14:09.856Z,27.70
2018-12-31T09:16:38.529Z,31.83
2018-12-31T09:19:07.027Z,33.93
2018-12-31T09:21:35.616Z,29.57
2018-12-31T09:24:04.121Z,26.97
2018-12-31T09:26:32.953Z,29.67
2018-12-31T09:29:01.448Z,36.60
2018-12-31T09:31:30.028Z,26.23
2018-12-31T09:33:58.595Z,31.13
2018-12-31T09:36:27.197Z,40.70
2018-12-31T09:38:55.781Z,23.20
2018-12-31T09:41:24.346Z,29.03
2018-12-31T09:43:52.933Z,27.03
2018-12-31T09:46:21.530Z,29.27
2018-12-31T09:48:50.086Z,22.07
2018-12-31T09:51:18.597Z,24.23
2018-12-31T09:53:47.210Z,27.07
2018-12-31T09:56:15.789Z,25.03
2018-12-31T09:58:44.292Z,32.70
2018-12-31T10:01:12.858Z,26.13
2018-12-31T10:03:41.463Z,27.37
2018-12-31T10:06:10.041Z,29.33
2018-12-31T10:08:38.622Z,26.83
2018-12-31T10:11:07.189Z,29.93
2018-12-31T10:13:35.709Z,27.83
2018-12-31T10:16:04.294Z,21.43
2018-12-31T10:18:32.901Z,37.43
2018-12-31T10:21:01.402Z,28.53
2018-12-31T10:23:29.995Z,30.83
2018-12-31T10:25:58.713Z,26.87
2018-12-31T10:28:27.390Z,22.30
2018-12-31T10:30:55.884Z,25.73
2018-12-31T10:33:24.418Z,31.63
2018-12-31T10:35:52.982Z,30.47
2018-12-31T10:38:21.523Z,29.80
2018-12-31T10:40:50.101Z,54.37
2018-12-31T10:43:18.678Z,31.63
2018-12-31T10:45:47.170Z,31.50
2018-12-31T10:48:15.761Z,29.87
2018-12-31T10:50:44.337Z,30.70
2018-12-31T10:53:12.860Z,31.47
2018-12-31T10:55:41.438Z,32.43
2018-12-31T10:58:10.018Z,27.00
2018-12-31T11:00:38.517Z,29.20
2018-12-31T11:03:07.109Z,27.47
2018-12-31T11:05:35.680Z,33.50
2018-12-31T11:08:04.258Z,36.40
2018-12-31T11:10:32.864Z,26.20
2018-12-31T11:13:01.592Z,29.53
2018-12-31T11:15:30.144Z,36.37
2018-12-31T11:17:58.685Z,30.77
2018-12-31T11:20:27.282Z,28.43
2018-12-31T11:22:55.849Z,29.07
2018-12-31T11:25:24.392Z,31.53
2018-12-31T11:27:52.942Z,26.70
2018-12-31T11:30:21.529Z,29.67
2018-12-31T11:32:50.118Z,26.10
2018-12-31T11:35:18.697Z,34.70
2018-12-31T11:37:47.277Z,36.27
2018-12-31T11:40:15.825Z,27.40
2018-12-31T11:42:44.400Z,32.00
2018-12-31T11:45:13.053Z,31.63
2018-12-31T11:47:41.546Z,32.10
2018-12-31T11:50:10.086Z,34.70
2018-12-31T11:52:38.645Z,26.73
2018-12-31T11:55:07.233Z,27.03
2018-12-31T11:57:35.729Z,30.57
2018-12-31T12:00:05.933Z,33.03
2018-12-31T12:02:34.456Z,31.00
2018-12-31T12:05:02.997Z,25.47
2018-12-31T12:07:31.510Z,26.07
2018-12-31T12:09:59.997Z,21.60
2018-12-31T12:12:28.585Z,30.00
2018-12-31T12:14:57.156Z,29.60
2018-12-31T12:17:25.757Z,23.47
2018-12-31T12:19:54.398Z,26.07
2018-12-31T12:22:22.991Z,26.17
2018-12-31T12:24:51.557Z,20.83
2018-12-31T12:27:20.188Z,20.63
2018-12-31T12:29:48.738Z,22.27
2018-12-31T12:32:17.342Z,20.77
2018-12-31T12:34:45.902Z,23.17
2018-12-31T12:37:14.593Z,24.13
2018-12-31T12:39:43.164Z,20.60
2018-12-31T12:42:11.753Z,24.90
2018-12-31T12:44:40.325Z,27.73
2018-12-31T12:47:08.946Z,23.87
2018-12-31T12:49:37.714Z,21.70
2018-12-31T12:52:06.370Z,36.20
2018-12-31T12:54:34.884Z,33.50
2018-12-31T12:57:03.471Z,31.73
2018-12-31T12:59:32.033Z,37.40
2018-12-31T13:02:00.921Z,31.40
2018-12-31T13:04:29.493Z,32.60
2018-12-31T13:06:58.058Z,31.43
2018-12-31T13:09:26.676Z,27.73
2018-12-31T13:11:55.233Z,22.40
2018-12-31T13:14:24.218Z,29.40
2018-12-31T13:16:52.775Z,27.27
2018-12-31T13:19:21.368Z,32.03
2018-12-31T13:21:49.941Z,31.27
2018-12-31T13:24:18.930Z,28.07
2018-12-31T13:26:47.918Z,30.83
2018-12-31T13:29:16.520Z,22.57
2018-12-31T13:31:45.100Z,29.27
2018-12-31T13:34:13.690Z,26.40
2018-12-31T13:36:42.256Z,27.07
2018-12-31T13:39:11.114Z,26.63
2018-12-31T13:41:39.683Z,28.93
2018-12-31T13:44:08.287Z,29.97
2018-12-31T13:46:36.852Z,27.30
2018-12-31T13:49:05.443Z,26.43
2018-12-31T13:51:34.018Z,26.67
2018-12-31T13:54:02.626Z,28.47
2018-12-31T13:56:31.187Z,28.70
2018-12-31T13:59:00.103Z,29.30
2018-12-31T14:01:28.723Z,28.20
2018-12-31T14:03:57.302Z,31.87
2018-12-31T14:06:27.619Z,29.77
2018-12-31T14:08:56.220Z,22.03
2018-12-31T14:11:24.850Z,26.27
2018-12-31T14:13:53.471Z,28.57
2018-12-31T14:16:22.109Z,31.37
2018-12-31T14:18:54.496Z,34.33
2018-12-31T14:21:23.072Z,28.27
2018-12-31T14:23:51.672Z,28.87
2018-12-31T14:26:20.248Z,25.20
2018-12-31T14:28:49.120Z,28.00
2018-12-31T14:31:17.696Z,23.87
2018-12-31T14:33:46.350Z,26.63
2018-12-31T14:36:14.935Z,24.57
2018-12-31T14:38:43.496Z,27.80
2018-12-31T14:41:12.288Z,24.13
2018-12-31T14:43:40.857Z,23.17
2018-12-31T14:46:09.437Z,29.93
2018-12-31T14:48:38.013Z,24.90
2018-12-31T14:51:06.683Z,17.43
2018-12-31T14:53:35.259Z,28.37
2018-12-31T14:56:03.961Z,25.80
2018-12-31T14:58:32.483Z,23.17
2018-12-31T15:01:01.078Z,26.03
2018-12-31T15:03:29.640Z,18.03
2018-12-31T15:05:58.219Z,19.57
2018-12-31T15:08:26.794Z,20.37
2018-12-31T15:10:55.385Z,26.03
2018-12-31T15:13:23.950Z,22.23
2018-12-31T15:15:52.537Z,25.67
2018-12-31T15:18:21.174Z,19.80
2018-12-31T15:20:49.828Z,24.00
2018-12-31T15:23:18.435Z,21.90
2018-12-31T15:25:47.038Z,18.70
2018-12-31T15:28:15.604Z,24.67
2018-12-31T15:30:44.185Z,23.53
2018-12-31T15:33:12.988Z,23.10
2018-12-31T15:35:41.546Z,20.00
2018-12-31T15:38:10.149Z,36.97
2018-12-31T15:40:38.698Z,25.80
2018-12-31T15:43:07.299Z,33.80
2018-12-31T15:45:36.067Z,29.20
2018-12-31T15:48:04.659Z,22.53
2018-12-31T15:50:33.232Z,33.47
2018-12-31T15:53:01.822Z,26.43
2018-12-31T15:55:30.407Z,27.30
2018-12-31T15:57:59.293Z,30.60
2018-12-31T16:00:27.859Z,30.30
2018-12-31T16:02:56.442Z,29.60
2018-12-31T16:05:25.013Z,26.67
2018-12-31T16:07:53.603Z,25.57
2018-12-31T16:10:22.173Z,29.73
2018-12-31T16:12:50.769Z,25.87
2018-12-31T16:15:19.480Z,25.40
2018-12-31T16:17:48.169Z,26.80
2018-12-31T16:20:16.748Z,24.33
2018-12-31T16:22:45.335Z,30.60
2018-12-31T16:25:13.902Z,27.10
2018-12-31T16:27:42.497Z,23.27
2018-12-31T16:30:11.087Z,26.60
2018-12-31T16:32:39.669Z,29.87
2018-12-31T16:35:08.253Z,21.20
2018-12-31T16:37:37.033Z,23.23
2018-12-31T16:40:06.265Z,22.20
2018-12-31T16:42:34.848Z,24.50
2018-12-31T16:45:03.694Z,25.33
2018-12-31T16:47:32.257Z,26.03
2018-12-31T16:50:01.044Z,27.97
2018-12-31T16:52:29.608Z,28.13
2018-12-31T16:54:58.190Z,29.80
2018-12-31T16:57:26.762Z,29.47
2018-12-31T16:59:55.348Z,28.97
2018-12-31T17:02:24.059Z,24.07
2018-12-31T17:04:52.655Z,26.40
2018-12-31T17:07:27.998Z,24.60
2018-12-31T17:09:51.458Z,27.47
2018-12-31T17:12:20.037Z,23.50
2018-12-31T17:14:48.640Z,33.03
2018-12-31T17:17:17.209Z,27.10
2018-12-31T17:19:45.797Z,26.97
2018-12-31T17:22:14.375Z,32.03
2018-12-31T17:24:42.967Z,26.47
2018-12-31T17:27:11.533Z,28.17
2018-12-31T17:29:40.325Z,28.77
2018-12-31T17:32:08.904Z,30.87
2018-12-31T17:34:37.502Z,30.83
2018-12-31T17:37:06.072Z,25.37
2018-12-31T17:39:34.657Z,29.40
2018-12-31T17:42:09.711Z,27.00
2018-12-31T17:44:33.778Z,33.97
2018-12-31T17:47:02.443Z,24.27
2018-12-31T17:49:31.090Z,31.53
2018-12-31T17:51:59.671Z,29.23
2018-12-31T17:54:28.557Z,25.27
2018-12-31T17:56:57.130Z,28.43
2018-12-31T17:59:25.749Z,26.77
2018-12-31T18:01:54.406Z,29.50
2018-12-31T18:04:22.970Z,29.40
2018-12-31T18:06:51.565Z,26.97
2018-12-31T18:09:20.142Z,28.37
2018-12-31T18:11:48.721Z,31.60
2018-12-31T18:14:17.297Z,31.60
2018-12-31T18:16:45.897Z,28.80
2018-12-31T18:19:14.466Z,32.03
2018-12-31T18:21:43.059Z,32.60
2018-12-31T18:24:11.642Z,29.43
2018-12-31T18:26:40.226Z,28.03
2018-12-31T18:29:08.797Z,24.50
2018-12-31T18:31:37.386Z,26.87
2018-12-31T18:34:06.145Z,27.20
2018-12-31T18:36:34.752Z,30.10
2018-12-31T18:39:04.611Z,25.67
2018-12-31T18:41:33.197Z,27.90
2018-12-31T18:44:01.756Z,31.63
2018-12-31T18:46:30.543Z,36.53
2018-12-31T18:48:59.119Z,33.43
2018-12-31T18:51:27.702Z,31.23
2018-12-31T18:53:56.266Z,36.53
2018-12-31T18:56:24.852Z,37.57
2018-12-31T18:58:53.495Z,38.13
2018-12-31T19:01:22.061Z,40.20
2018-12-31T19:03:50.654Z,38.87
2018-12-31T19:06:19.218Z,41.37
2018-12-31T19:08:47.814Z,40.57
2018-12-31T19:11:16.378Z,37.50
2018-12-31T19:13:44.979Z,37.97
2018-12-31T19:16:13.542Z,42.33
2018-12-31T19:18:42.182Z,39.77
2018-12-31T19:21:10.864Z,39.93
2018-12-31T19:23:39.456Z,34.07
2018-12-31T19:26:08.356Z,35.87
2018-12-31T19:28:37.079Z,32.47
2018-12-31T19:31:05.655Z,37.20
2018-12-31T19:33:34.437Z,33.60
2018-12-31T19:36:03.085Z,37.27
2018-12-31T19:38:32.012Z,36.47
2018-12-31T19:41:00.573Z,32.13
2018-12-31T19:43:29.154Z,33.93
2018-12-31T19:45:57.800Z,33.60
2018-12-31T19:48:26.457Z,33.40
2018-12-31T19:50:55.101Z,35.23
2018-12-31T19:53:23.761Z,34.93
2018-12-31T19:55:52.360Z,34.87
2018-12-31T19:58:21.035Z,33.57
2018-12-31T20:00:49.593Z,36.70
2018-12-31T20:03:18.198Z,37.93
2018-12-31T20:05:46.866Z,35.67
2018-12-31T20:08:15.465Z,36.07
2018-12-31T20:10:44.153Z,34.30
2018-12-31T20:13:12.786Z,41.43
2018-12-31T20:15:48.386Z,38.87
2018-12-31T20:18:11.593Z,42.57
2018-12-31T20:20:40.246Z,41.20
2018-12-31T20:23:08.829Z,39.53
2018-12-31T20:25:37.470Z,40.20
2018-12-31T20:28:06.254Z,42.63
2018-12-31T20:30:34.920Z,41.50
2018-12-31T20:33:03.490Z,42.13
2018-12-31T20:35:32.086Z,42.67
2018-12-31T20:38:00.762Z,40.80
2018-12-31T20:40:29.355Z,44.97
2018-12-31T20:42:59.128Z,44.90
2018-12-31T20:45:27.933Z,43.40
2018-12-31T20:48:01.679Z,44.70
2018-12-31T20:50:27.038Z,41.57
2018-12-31T20:52:55.611Z,41.40
2018-12-31T20:55:24.434Z,39.60
2018-12-31T20:57:53.014Z,37.53
2018-12-31T21:00:21.601Z,37.03
2018-12-31T21:02:50.168Z,32.73
2018-12-31T21:05:18.795Z,38.27
2018-12-31T21:07:47.364Z,34.67
2018-12-31T21:10:16.012Z,38.47
2018-12-31T21:12:44.905Z,38.57
2018-12-31T21:15:13.507Z,33.93
2018-12-31T21:17:42.074Z,38.70
2018-12-31T21:20:10.813Z,34.73
2018-12-31T21:22:39.358Z,36.87
2018-12-31T21:25:08.013Z,38.97
2018-12-31T21:27:36.593Z,34.53
2018-12-31T21:30:08.577Z,36.77
2018-12-31T21:32:39.545Z,36.97
2018-12-31T21:35:07.982Z,35.80
2018-12-31T21:37:36.650Z,33.60
2018-12-31T21:40:07.789Z,37.53
2018-12-31T21:42:36.701Z,37.40
2018-12-31T21:45:05.707Z,41.17
2018-12-31T21:47:34.350Z,34.23
2018-12-31T21:50:02.939Z,38.67
2018-12-31T21:52:31.513Z,35.90
2018-12-31T21:55:00.237Z,36.37
2018-12-31T21:57:28.971Z,43.23
2018-12-31T21:59:57.544Z,48.53
2018-12-31T22:02:26.207Z,44.07
2018-12-31T22:04:55.311Z,42.27
2018-12-31T22:07:23.969Z,37.07
2018-12-31T22:09:52.640Z,37.20
2018-12-31T22:12:21.246Z,41.70
2018-12-31T22:14:49.875Z,36.93
2018-12-31T22:17:18.545Z,41.63
2018-12-31T22:19:47.189Z,28.77
2018-12-31T22:22:15.948Z,24.67
2018-12-31T22:24:44.516Z,22.73
2018-12-31T22:27:13.043Z,21.27
2018-12-31T22:29:41.594Z,21.67
2018-12-31T22:32:10.488Z,20.53
2018-12-31T22:34:41.714Z,22.17
2018-12-31T22:37:10.322Z,25.37
2018-12-31T22:39:38.890Z,24.00
2018-12-31T22:42:07.494Z,22.90
2018-12-31T22:44:36.263Z,23.13
2018-12-31T22:47:04.845Z,26.60
2018-12-31T22:49:33.414Z,24.47
2018-12-31T22:52:01.998Z,25.47
2018-12-31T22:54:30.565Z,25.77
2018-12-31T22:56:59.348Z,24.70
2018-12-31T22:59:27.992Z,28.13
2018-12-31T23:01:56.570Z,26.50
2018-12-31T23:04:25.151Z,30.30
2018-12-31T23:06:55.071Z,28.47
2018-12-31T23:09:24.135Z,57.53
2018-12-31T23:11:52.795Z,75.17
2018-12-31T23:14:21.460Z,82.03
2018-12-31T23:16:50.384Z,94.53
2018-12-31T23:19:18.950Z,74.53
2018-12-31T23:21:47.724Z,77.97
2018-12-31T23:24:16.573Z,57.23
2018-12-31T23:26:45.160Z,50.30
2018-12-31T23:29:13.764Z,50.53
2018-12-31T23:31:42.321Z,51.57
2018-12-31T23:34:10.905Z,43.53
2018-12-31T23:36:39.474Z,35.60
2018-12-31T23:39:08.257Z,30.63
2018-12-31T23:41:36.815Z,27.43
2018-12-31T23:44:05.459Z,26.83
2018-12-31T23:46:34.082Z,22.90
2018-12-31T23:49:02.893Z,23.10
2018-12-31T23:51:33.040Z,20.13
2018-12-31T23:54:01.645Z,19.60
2018-12-31T23:56:30.238Z,17.37
2018-12-31T23:58:59.028Z,19.43
